Time,TemperatureF,DewpointF,PressureIn,WindDirection,WindDirectionDegrees,WindSpeedMPH,WindSpeedGustMPH,Humidity,HourlyPrecipIn,Conditions,Clouds,dailyrainin,SoftwareType,DateUTC
2013-02-02 00:01:00,41.0,38.0,30.30,NW,315,0.0,0.0,89,0.00,,,0.00,,2013-02-02 08:01:00,
2013-02-02 00:11:00,41.0,38.0,30.30,NW,315,0.0,0.0,89,0.00,,,0.00,,2013-02-02 08:11:00,
2013-02-02 00:21:00,41.0,38.0,30.30,NW,315,0.0,0.0,89,0.00,,,0.00,,2013-02-02 08:21:00,
2013-02-02 00:31:00,40.0,37.0,30.30,NW,315,0.0,1.0,89,0.00,,,0.00,,2013-02-02 08:31:00,
2013-02-02 00:42:00,40.0,37.0,30.30,NW,315,0.0,1.0,89,0.00,,,0.00,,2013-02-02 08:42:00,
2013-02-02 00:53:00,40.0,37.0,30.30,NW,315,0.0,1.0,89,0.00,,,0.00,,2013-02-02 08:53:00,
2013-02-02 01:01:00,39.0,36.0,30.31,NW,316,0.0,0.0,89,0.00,,,0.00,,2013-02-02 09:01:00,
2013-02-02 01:11:00,39.0,36.0,30.31,NW,316,0.0,0.0,89,0.00,,,0.00,,2013-02-02 09:11:00,
2013-02-02 01:22:00,39.0,36.0,30.31,NW,316,0.0,0.0,89,0.00,,,0.00,,2013-02-02 09:22:00,
2013-02-02 01:31:00,39.0,36.0,30.30,NW,316,0.0,0.0,88,0.00,,,0.00,,2013-02-02 09:31:00,
2013-02-02 01:42:00,39.0,36.0,30.30,NW,316,0.0,0.0,88,0.00,,,0.00,,2013-02-02 09:42:00,
2013-02-02 01:52:00,39.0,36.0,30.30,NW,316,0.0,0.0,88,0.00,,,0.00,,2013-02-02 09:52:00,
2013-02-02 02:01:00,38.0,35.0,30.30,NW,316,0.0,1.0,89,0.00,,,0.00,,2013-02-02 10:01:00,
2013-02-02 02:11:00,38.0,35.0,30.30,NW,316,0.0,1.0,89,0.00,,,0.00,,2013-02-02 10:11:00,
2013-02-02 02:21:00,37.0,34.0,30.31,NW,316,0.0,0.0,89,0.00,,,0.00,,2013-02-02 10:21:00,
2013-02-02 02:31:00,37.0,34.0,30.31,NW,316,0.0,0.0,89,0.00,,,0.00,,2013-02-02 10:31:00,
2013-02-02 02:42:00,37.0,34.0,30.31,NW,316,0.0,0.0,89,0.00,,,0.00,,2013-02-02 10:42:00,
2013-02-02 02:52:00,37.0,34.0,30.31,NW,316,0.0,0.0,89,0.00,,,0.00,,2013-02-02 10:52:00,
2013-02-02 03:01:00,37.0,34.0,30.32,NW,316,0.0,0.0,90,0.00,,,0.00,,2013-02-02 11:01:00,
2013-02-02 03:11:00,37.0,34.0,30.32,NW,316,0.0,0.0,90,0.00,,,0.00,,2013-02-02 11:11:00,
2013-02-02 03:21:00,37.0,34.0,30.32,NW,316,0.0,0.0,90,0.00,,,0.00,,2013-02-02 11:21:00,
2013-02-02 03:31:00,36.0,33.0,30.32,NW,316,0.0,0.0,90,0.00,,,0.00,,2013-02-02 11:31:00,
2013-02-02 03:42:00,36.0,33.0,30.32,NW,316,0.0,0.0,90,0.00,,,0.00,,2013-02-02 11:42:00,
2013-02-02 03:52:00,36.0,33.0,30.32,NW,316,0.0,0.0,90,0.00,,,0.00,,2013-02-02 11:52:00,
2013-02-02 04:01:00,36.0,33.0,30.31,NW,316,0.0,0.0,90,0.00,,,0.00,,2013-02-02 12:01:00,
2013-02-02 04:11:00,36.0,33.0,30.31,NW,316,0.0,0.0,90,0.00,,,0.00,,2013-02-02 12:11:00,
2013-02-02 04:22:00,36.0,33.0,30.31,NW,316,0.0,0.0,90,0.00,,,0.00,,2013-02-02 12:22:00,
2013-02-02 04:32:00,36.0,33.0,30.32,NW,316,0.0,0.0,90,0.00,,,0.00,,2013-02-02 12:32:00,
2013-02-02 04:42:00,36.0,33.0,30.32,NW,316,0.0,0.0,90,0.00,,,0.00,,2013-02-02 12:42:00,
2013-02-02 04:52:00,36.0,33.0,30.32,NW,316,0.0,0.0,90,0.00,,,0.00,,2013-02-02 12:52:00,
2013-02-02 05:02:00,35.0,32.0,30.32,NW,317,0.0,0.0,90,0.00,,,0.00,,2013-02-02 13:02:00,
2013-02-02 05:11:00,35.0,32.0,30.32,NW,317,0.0,0.0,90,0.00,,,0.00,,2013-02-02 13:11:00,
2013-02-02 05:21:00,35.0,32.0,30.32,NW,317,0.0,0.0,90,0.00,,,0.00,,2013-02-02 13:21:00,
2013-02-02 05:32:00,35.0,33.0,30.32,NW,317,0.0,0.0,91,0.00,,,0.00,,2013-02-02 13:32:00,
2013-02-02 05:42:00,35.0,33.0,30.32,NW,317,0.0,0.0,91,0.00,,,0.00,,2013-02-02 13:42:00,
2013-02-02 05:52:00,35.0,33.0,30.32,NW,317,0.0,0.0,91,0.00,,,0.00,,2013-02-02 13:52:00,
2013-02-02 06:02:00,35.0,33.0,30.31,NW,317,1.0,2.0,91,0.00,,,0.00,,2013-02-02 14:02:00,
2013-02-02 06:11:00,35.0,33.0,30.31,NW,317,1.0,2.0,91,0.00,,,0.00,,2013-02-02 14:11:00,
2013-02-02 06:22:00,35.0,33.0,30.31,NW,317,0.0,1.0,91,0.00,,,0.00,,2013-02-02 14:22:00,
2013-02-02 06:32:00,35.0,33.0,30.31,NW,317,0.0,1.0,91,0.00,,,0.00,,2013-02-02 14:32:00,
2013-02-02 06:42:00,35.0,33.0,30.31,NW,317,0.0,1.0,91,0.00,,,0.00,,2013-02-02 14:42:00,
2013-02-02 06:52:00,35.0,33.0,30.31,NW,317,0.0,1.0,91,0.00,,,0.00,,2013-02-02 14:52:00,
2013-02-02 07:02:00,34.0,32.0,30.31,NW,317,0.0,1.0,91,0.00,,,0.00,,2013-02-02 15:02:00,
2013-02-02 07:12:00,34.0,32.0,30.31,NW,317,0.0,1.0,91,0.00,,,0.00,,2013-02-02 15:12:00,
2013-02-02 07:21:00,34.0,32.0,30.31,NW,317,0.0,1.0,91,0.00,,,0.00,,2013-02-02 15:21:00,
2013-02-02 07:32:00,34.0,32.0,30.32,NW,317,0.0,0.0,91,0.00,,,0.00,,2013-02-02 15:32:00,
2013-02-02 07:42:00,34.0,32.0,30.32,NW,317,0.0,0.0,91,0.00,,,0.00,,2013-02-02 15:42:00,
2013-02-02 07:52:00,34.0,32.0,30.32,NW,317,0.0,0.0,91,0.00,,,0.00,,2013-02-02 15:52:00,
2013-02-02 08:02:00,34.0,32.0,30.33,NW,316,0.0,0.0,91,0.00,,,0.00,,2013-02-02 16:02:00,
2013-02-02 08:11:00,34.0,32.0,30.33,NW,316,0.0,0.0,91,0.00,,,0.00,,2013-02-02 16:11:00,
2013-02-02 08:22:00,34.0,32.0,30.33,NW,316,0.0,0.0,91,0.00,,,0.00,,2013-02-02 16:22:00,
2013-02-02 08:31:00,35.0,33.0,30.35,NW,317,0.0,0.0,92,0.00,,,0.00,,2013-02-02 16:31:00,
2013-02-02 08:42:00,35.0,33.0,30.35,NW,317,0.0,0.0,92,0.00,,,0.00,,2013-02-02 16:42:00,
2013-02-02 08:52:00,35.0,33.0,30.35,NW,317,0.0,0.0,92,0.00,,,0.00,,2013-02-02 16:52:00,
2013-02-02 09:02:00,35.0,33.0,30.35,NW,317,0.0,1.0,91,0.00,,,0.00,,2013-02-02 17:02:00,
2013-02-02 09:11:00,35.0,33.0,30.35,NW,317,0.0,1.0,91,0.00,,,0.00,,2013-02-02 17:11:00,
2013-02-02 09:22:00,35.0,33.0,30.35,NW,317,0.0,1.0,91,0.00,,,0.00,,2013-02-02 17:22:00,
2013-02-02 09:32:00,36.0,34.0,30.36,NW,316,0.0,0.0,92,0.00,,,0.00,,2013-02-02 17:32:00,
2013-02-02 09:42:00,36.0,34.0,30.36,NW,316,0.0,0.0,92,0.00,,,0.00,,2013-02-02 17:42:00,
2013-02-02 09:52:00,36.0,34.0,30.36,NW,316,0.0,0.0,92,0.00,,,0.00,,2013-02-02 17:52:00,
2013-02-02 10:02:00,42.0,40.0,30.37,NW,316,0.0,0.0,92,0.00,,,0.00,,2013-02-02 18:02:00,
2013-02-02 10:12:00,42.0,40.0,30.37,NW,316,0.0,0.0,92,0.00,,,0.00,,2013-02-02 18:12:00,
2013-02-02 10:22:00,42.0,40.0,30.37,NW,316,0.0,0.0,92,0.00,,,0.00,,2013-02-02 18:22:00,
2013-02-02 10:31:00,43.0,40.0,30.37,NW,316,0.0,0.0,88,0.00,,,0.00,,2013-02-02 18:31:00,
2013-02-02 10:42:00,43.0,40.0,30.37,NW,316,0.0,0.0,88,0.00,,,0.00,,2013-02-02 18:42:00,
2013-02-02 10:52:00,43.0,40.0,30.37,NW,316,0.0,0.0,88,0.00,,,0.00,,2013-02-02 18:52:00,
2013-02-02 11:01:00,48.0,44.0,30.38,NW,314,1.0,1.0,85,0.00,,,0.00,,2013-02-02 19:01:00,
2013-02-02 11:11:00,48.0,44.0,30.38,NW,314,1.0,1.0,85,0.00,,,0.00,,2013-02-02 19:11:00,
2013-02-02 11:21:00,48.0,44.0,30.38,NW,314,1.0,1.0,85,0.00,,,0.00,,2013-02-02 19:21:00,
2013-02-02 11:32:00,52.0,47.0,30.38,NW,314,0.0,1.0,82,0.00,,,0.00,,2013-02-02 19:32:00,
2013-02-02 11:42:00,52.0,47.0,30.38,NW,314,0.0,1.0,82,0.00,,,0.00,,2013-02-02 19:42:00,
2013-02-02 11:52:00,52.0,47.0,30.38,NW,314,0.0,1.0,82,0.00,,,0.00,,2013-02-02 19:52:00,
2013-02-02 12:01:00,54.0,47.0,30.38,NW,315,0.0,2.0,76,0.00,,,0.00,,2013-02-02 20:01:00,
2013-02-02 12:11:00,54.0,47.0,30.38,NW,315,0.0,2.0,76,0.00,,,0.00,,2013-02-02 20:11:00,
2013-02-02 12:21:00,56.0,47.0,30.37,NW,315,0.0,2.0,71,0.00,,,0.00,,2013-02-02 20:21:00,
2013-02-02 12:32:00,56.0,47.0,30.37,NW,315,0.0,2.0,71,0.00,,,0.00,,2013-02-02 20:32:00,
2013-02-02 12:42:00,56.0,47.0,30.37,NW,315,0.0,2.0,71,0.00,,,0.00,,2013-02-02 20:42:00,
2013-02-02 12:52:00,56.0,47.0,30.37,NW,315,0.0,2.0,71,0.00,,,0.00,,2013-02-02 20:52:00,
2013-02-02 13:01:00,58.0,49.0,30.35,NW,315,0.0,1.0,72,0.00,,,0.00,,2013-02-02 21:01:00,
2013-02-02 13:11:00,58.0,49.0,30.35,NW,315,0.0,1.0,72,0.00,,,0.00,,2013-02-02 21:11:00,
2013-02-02 13:21:00,58.0,49.0,30.35,NW,315,0.0,1.0,72,0.00,,,0.00,,2013-02-02 21:21:00,
2013-02-02 13:32:00,58.0,46.0,30.35,NW,315,0.0,1.0,65,0.00,,,0.00,,2013-02-02 21:32:00,
2013-02-02 13:42:00,58.0,46.0,30.35,NW,315,0.0,1.0,65,0.00,,,0.00,,2013-02-02 21:42:00,
2013-02-02 13:52:00,58.0,46.0,30.35,NW,315,0.0,1.0,65,0.00,,,0.00,,2013-02-02 21:52:00,
2013-02-02 14:02:00,59.0,46.0,30.35,WSW,243,0.0,1.0,63,0.00,,,0.00,,2013-02-02 22:02:00,
2013-02-02 14:11:00,59.0,46.0,30.35,WSW,243,0.0,1.0,63,0.00,,,0.00,,2013-02-02 22:11:00,
2013-02-02 14:21:00,59.0,46.0,30.35,WSW,243,0.0,1.0,63,0.00,,,0.00,,2013-02-02 22:21:00,
2013-02-02 14:32:00,59.0,47.0,30.35,SSW,212,0.0,7.0,65,0.00,,,0.00,,2013-02-02 22:32:00,
2013-02-02 14:42:00,59.0,47.0,30.35,SSW,212,0.0,7.0,65,0.00,,,0.00,,2013-02-02 22:42:00,
2013-02-02 14:52:00,59.0,47.0,30.35,SSW,212,0.0,7.0,65,0.00,,,0.00,,2013-02-02 22:52:00,
2013-02-02 15:01:00,58.0,48.0,30.35,SSW,211,1.0,6.0,69,0.00,,,0.00,,2013-02-02 23:01:00,
2013-02-02 15:11:00,58.0,48.0,30.35,SSW,211,1.0,6.0,69,0.00,,,0.00,,2013-02-02 23:11:00,
2013-02-02 15:21:00,58.0,48.0,30.35,SSW,211,1.0,6.0,69,0.00,,,0.00,,2013-02-02 23:21:00,
2013-02-02 15:32:00,57.0,48.0,30.36,SSW,204,4.0,6.0,71,0.00,,,0.00,,2013-02-02 23:32:00,
2013-02-02 15:42:00,57.0,48.0,30.36,SSW,204,4.0,6.0,71,0.00,,,0.00,,2013-02-02 23:42:00,
2013-02-02 15:52:00,57.0,48.0,30.36,SSW,204,4.0,6.0,71,0.00,,,0.00,,2013-02-02 23:52:00,
2013-02-02 16:01:00,57.0,48.0,30.36,SSW,198,5.0,5.0,72,0.00,,,0.00,,2013-02-03 00:01:00,
2013-02-02 16:11:00,57.0,48.0,30.36,SSW,198,5.0,5.0,72,0.00,,,0.00,,2013-02-03 00:11:00,
2013-02-02 16:21:00,57.0,48.0,30.36,SSW,198,5.0,5.0,72,0.00,,,0.00,,2013-02-03 00:21:00,
2013-02-02 16:31:00,55.0,47.0,30.37,SSE,164,0.0,4.0,74,0.00,,,0.00,,2013-02-03 00:31:00,
2013-02-02 16:42:00,55.0,47.0,30.37,SSE,164,0.0,4.0,74,0.00,,,0.00,,2013-02-03 00:42:00,
2013-02-02 16:52:00,55.0,47.0,30.37,SSE,164,0.0,4.0,74,0.00,,,0.00,,2013-02-03 00:52:00,
2013-02-02 17:01:00,54.0,47.0,30.37,SSW,205,1.0,4.0,76,0.00,,,0.00,,2013-02-03 01:01:00,
2013-02-02 17:11:00,54.0,47.0,30.37,SSW,205,1.0,4.0,76,0.00,,,0.00,,2013-02-03 01:11:00,
2013-02-02 17:21:00,54.0,47.0,30.37,SSW,205,1.0,4.0,76,0.00,,,0.00,,2013-02-03 01:21:00,
2013-02-02 17:32:00,53.0,46.0,30.38,WNW,286,0.0,1.0,78,0.00,,,0.00,,2013-02-03 01:32:00,
2013-02-02 17:42:00,53.0,46.0,30.38,WNW,286,0.0,1.0,78,0.00,,,0.00,,2013-02-03 01:42:00,
2013-02-02 17:52:00,53.0,46.0,30.38,WNW,286,0.0,1.0,78,0.00,,,0.00,,2013-02-03 01:52:00,
2013-02-02 18:01:00,52.0,46.0,30.38,WNW,286,0.0,0.0,79,0.00,,,0.00,,2013-02-03 02:01:00,
2013-02-02 18:11:00,52.0,46.0,30.38,WNW,286,0.0,0.0,79,0.00,,,0.00,,2013-02-03 02:11:00,
2013-02-02 18:21:00,52.0,46.0,30.38,WNW,286,0.0,0.0,79,0.00,,,0.00,,2013-02-03 02:21:00,
2013-02-02 18:31:00,52.0,46.0,30.38,WNW,286,0.0,0.0,80,0.00,,,0.00,,2013-02-03 02:31:00,
2013-02-02 18:42:00,52.0,46.0,30.38,WNW,286,0.0,0.0,80,0.00,,,0.00,,2013-02-03 02:42:00,
2013-02-02 18:52:00,52.0,46.0,30.38,WNW,286,0.0,0.0,80,0.00,,,0.00,,2013-02-03 02:52:00,
2013-02-02 19:01:00,51.0,46.0,30.39,WNW,286,0.0,0.0,83,0.00,,,0.00,,2013-02-03 03:01:00,
2013-02-02 19:11:00,51.0,46.0,30.39,WNW,286,0.0,0.0,83,0.00,,,0.00,,2013-02-03 03:11:00,
2013-02-02 19:21:00,51.0,46.0,30.39,WNW,286,0.0,0.0,83,0.00,,,0.00,,2013-02-03 03:21:00,
2013-02-02 19:31:00,51.0,46.0,30.38,WNW,286,0.0,0.0,84,0.00,,,0.00,,2013-02-03 03:31:00,
2013-02-02 19:42:00,51.0,46.0,30.38,WNW,286,0.0,0.0,84,0.00,,,0.00,,2013-02-03 03:42:00,
2013-02-02 19:52:00,51.0,46.0,30.38,WNW,286,0.0,0.0,84,0.00,,,0.00,,2013-02-03 03:52:00,
2013-02-02 20:01:00,50.0,45.0,30.38,WNW,286,0.0,0.0,84,0.00,,,0.00,,2013-02-03 04:01:00,
2013-02-02 20:11:00,50.0,45.0,30.38,WNW,286,0.0,0.0,84,0.00,,,0.00,,2013-02-03 04:11:00,
2013-02-02 20:21:00,50.0,45.0,30.38,WNW,286,0.0,0.0,84,0.00,,,0.00,,2013-02-03 04:21:00,
2013-02-02 20:31:00,50.0,45.0,30.38,WNW,286,0.0,2.0,84,0.00,,,0.00,,2013-02-03 04:31:00,
2013-02-02 20:42:00,50.0,45.0,30.38,WNW,286,0.0,2.0,84,0.00,,,0.00,,2013-02-03 04:42:00,
2013-02-02 20:52:00,50.0,45.0,30.38,WNW,286,0.0,2.0,84,0.00,,,0.00,,2013-02-03 04:52:00,
2013-02-02 21:03:00,50.0,46.0,30.38,WNW,286,0.0,0.0,85,0.00,,,0.00,,2013-02-03 05:03:00,
2013-02-02 21:11:00,50.0,46.0,30.38,WNW,286,0.0,0.0,85,0.00,,,0.00,,2013-02-03 05:11:00,
2013-02-02 21:22:00,50.0,46.0,30.38,WNW,286,0.0,0.0,85,0.00,,,0.00,,2013-02-03 05:22:00,
2013-02-02 21:31:00,49.0,45.0,30.38,WNW,286,0.0,0.0,87,0.00,,,0.00,,2013-02-03 05:31:00,
2013-02-02 21:42:00,49.0,45.0,30.38,WNW,286,0.0,0.0,87,0.00,,,0.00,,2013-02-03 05:42:00,
2013-02-02 21:52:00,49.0,45.0,30.39,WNW,286,0.0,0.0,87,0.00,,,0.00,,2013-02-03 05:52:00,
2013-02-02 22:02:00,49.0,45.0,30.39,WNW,286,0.0,0.0,87,0.00,,,0.00,,2013-02-03 06:02:00,
2013-02-02 22:11:00,49.0,45.0,30.39,WNW,286,0.0,0.0,87,0.00,,,0.00,,2013-02-03 06:11:00,
2013-02-02 22:21:00,49.0,45.0,30.39,WNW,286,0.0,0.0,87,0.00,,,0.00,,2013-02-03 06:21:00,
2013-02-02 22:31:00,49.0,45.0,30.38,WNW,286,0.0,0.0,87,0.00,,,0.00,,2013-02-03 06:31:00,
2013-02-02 22:42:00,49.0,45.0,30.38,WNW,286,0.0,0.0,87,0.00,,,0.00,,2013-02-03 06:42:00,
2013-02-02 22:52:00,49.0,45.0,30.38,WNW,286,0.0,0.0,87,0.00,,,0.00,,2013-02-03 06:52:00,
2013-02-02 23:01:00,49.0,46.0,30.38,WNW,286,0.0,0.0,88,0.00,,,0.00,,2013-02-03 07:01:00,
2013-02-02 23:11:00,49.0,46.0,30.38,WNW,286,0.0,0.0,88,0.00,,,0.00,,2013-02-03 07:11:00,
2013-02-02 23:21:00,49.0,46.0,30.38,WNW,286,0.0,0.0,88,0.00,,,0.00,,2013-02-03 07:21:00,
2013-02-02 23:31:00,48.0,45.0,30.40,WNW,286,0.0,0.0,88,0.00,,,0.00,,2013-02-03 07:31:00,
2013-02-02 23:42:00,48.0,45.0,30.40,WNW,286,0.0,0.0,88,0.00,,,0.00,,2013-02-03 07:42:00,
2013-02-02 23:52:00,48.0,45.0,30.40,WNW,286,0.0,0.0,88,0.00,,,0.00,,2013-02-03 07:52:00,